createdAt,value
2023-05-14T00:00:56.103Z,92656.00
2023-05-14T00:01:56.078Z,92654.00
2023-05-14T00:02:56.437Z,92654.00
2023-05-14T00:03:56.504Z,92656.00
2023-05-14T00:04:56.598Z,92654.00
2023-05-14T00:05:56.786Z,92658.00
2023-05-14T00:06:56.936Z,92660.00
2023-05-14T00:07:57.131Z,92656.00
2023-05-14T00:08:57.287Z,92656.00
2023-05-14T00:09:57.469Z,92652.00
2023-05-14T00:10:57.651Z,92650.00
2023-05-14T00:11:57.818Z,92650.00
2023-05-14T00:12:57.996Z,92650.00
2023-05-14T00:13:58.170Z,92650.00
2023-05-14T00:14:58.360Z,92650.00
2023-05-14T00:15:58.584Z,92652.00
2023-05-14T00:16:58.701Z,92652.00
2023-05-14T00:17:58.899Z,92648.00
2023-05-14T00:18:59.088Z,92650.00
2023-05-14T00:19:59.235Z,92646.00
2023-05-14T00:20:59.425Z,92646.00
2023-05-14T00:21:59.590Z,92648.00
2023-05-14T00:22:59.765Z,92644.00
2023-05-14T00:23:59.946Z,92644.00
2023-05-14T00:25:00.163Z,92642.00
2023-05-14T00:26:00.457Z,92644.00
2023-05-14T00:27:00.493Z,92642.00
2023-05-14T00:28:00.648Z,92642.00
2023-05-14T00:29:00.827Z,92640.00
2023-05-14T00:30:01.090Z,92642.00
2023-05-14T00:31:01.202Z,92640.00
2023-05-14T00:32:01.344Z,92638.00
2023-05-14T00:33:01.733Z,92640.00
2023-05-14T00:34:01.726Z,92637.00
2023-05-14T00:35:01.893Z,92638.00
2023-05-14T00:36:02.217Z,92637.00
2023-05-14T00:37:02.261Z,92637.00
2023-05-14T00:38:02.435Z,92638.00
2023-05-14T00:39:02.591Z,92638.00
2023-05-14T00:40:02.810Z,92638.00
2023-05-14T00:41:02.964Z,92640.00
2023-05-14T00:42:03.128Z,92642.00
2023-05-14T00:43:03.315Z,92640.00
2023-05-14T00:44:03.501Z,92642.00
2023-05-14T00:45:03.688Z,92642.00
2023-05-14T00:46:03.851Z,92646.00
2023-05-14T00:47:04.082Z,92644.00
2023-05-14T00:48:04.236Z,92644.00
2023-05-14T00:49:04.466Z,92642.00
2023-05-14T00:50:04.583Z,92640.00
2023-05-14T00:51:04.762Z,92640.00
2023-05-14T00:52:04.938Z,92642.00
2023-05-14T00:53:05.133Z,92642.00
2023-05-14T00:54:05.211Z,92642.00
2023-05-14T00:55:05.273Z,92646.00
2023-05-14T00:56:05.333Z,92642.00
2023-05-14T00:57:05.397Z,92644.00
2023-05-14T00:58:05.465Z,92644.00
2023-05-14T00:59:05.530Z,92644.00
2023-05-14T01:00:05.594Z,92642.00
2023-05-14T01:01:05.688Z,92642.00
2023-05-14T01:02:05.707Z,92640.00
2023-05-14T01:03:05.811Z,92640.00
2023-05-14T01:04:05.948Z,92644.00
2023-05-14T01:05:06.099Z,92642.00
2023-05-14T01:06:06.271Z,92638.00
2023-05-14T01:07:06.460Z,92640.00
2023-05-14T01:08:06.659Z,92638.00
2023-05-14T01:09:06.846Z,92637.00
2023-05-14T01:10:07.038Z,92637.00
2023-05-14T01:11:07.218Z,92635.00
2023-05-14T01:12:07.406Z,92635.00
2023-05-14T01:13:07.591Z,92633.00
2023-05-14T01:14:07.766Z,92629.00
2023-05-14T01:15:07.951Z,92631.00
2023-05-14T01:16:08.147Z,92629.00
2023-05-14T01:17:08.317Z,92625.00
2023-05-14T01:18:08.532Z,92629.00
2023-05-14T01:19:08.711Z,92625.00
2023-05-14T01:20:08.862Z,92623.00
2023-05-14T01:21:09.036Z,92623.00
2023-05-14T01:22:09.219Z,92625.00
2023-05-14T01:23:09.408Z,92625.00
2023-05-14T01:24:09.602Z,92619.00
2023-05-14T01:25:09.770Z,92619.00
2023-05-14T01:26:09.927Z,92619.00
2023-05-14T01:27:10.105Z,92621.00
2023-05-14T01:28:10.283Z,92619.00
2023-05-14T01:29:10.461Z,92619.00
2023-05-14T01:30:10.650Z,92623.00
2023-05-14T01:31:10.811Z,92623.00
2023-05-14T01:32:11.054Z,92623.00
2023-05-14T01:33:11.173Z,92621.00
2023-05-14T01:34:11.353Z,92621.00
2023-05-14T01:35:11.544Z,92621.00
2023-05-14T01:36:11.710Z,92621.00
2023-05-14T01:37:11.887Z,92623.00
2023-05-14T01:38:12.077Z,92623.00
2023-05-14T01:39:12.260Z,92623.00
2023-05-14T01:40:12.468Z,92623.00
2023-05-14T01:41:12.650Z,92623.00
2023-05-14T01:42:12.853Z,92621.00
2023-05-14T01:43:13.062Z,92621.00
2023-05-14T01:44:13.222Z,92619.00
2023-05-14T01:45:13.399Z,92619.00
2023-05-14T01:46:13.608Z,92621.00
2023-05-14T01:47:13.782Z,92619.00
2023-05-14T01:48:13.944Z,92621.00
2023-05-14T01:49:14.141Z,92617.00
2023-05-14T01:50:14.322Z,92619.00
2023-05-14T01:51:14.513Z,92619.00
2023-05-14T01:52:14.691Z,92617.00
2023-05-14T01:53:14.873Z,92619.00
2023-05-14T01:54:15.042Z,92619.00
2023-05-14T01:55:15.223Z,92617.00
2023-05-14T01:56:15.398Z,92617.00
2023-05-14T01:57:15.584Z,92619.00
2023-05-14T01:58:15.780Z,92617.00
2023-05-14T01:59:15.979Z,92617.00
2023-05-14T02:00:16.150Z,92619.00
2023-05-14T02:01:16.376Z,92617.00
2023-05-14T02:02:16.526Z,92619.00
2023-05-14T02:03:16.707Z,92619.00
2023-05-14T02:04:16.963Z,92619.00
2023-05-14T02:05:17.101Z,92619.00
2023-05-14T02:06:17.281Z,92615.00
2023-05-14T02:07:17.458Z,92617.00
2023-05-14T02:08:17.649Z,92615.00
2023-05-14T02:09:17.846Z,92615.00
2023-05-14T02:10:18.008Z,92611.00
2023-05-14T02:11:18.192Z,92613.00
2023-05-14T02:12:18.367Z,92611.00
2023-05-14T02:13:18.543Z,92611.00
2023-05-14T02:14:18.725Z,92607.00
2023-05-14T02:15:18.898Z,92611.00
2023-05-14T02:16:19.141Z,92607.00
2023-05-14T02:17:19.261Z,92607.00
2023-05-14T02:18:19.424Z,92609.00
2023-05-14T02:19:19.599Z,92607.00
2023-05-14T02:20:19.768Z,92609.00
2023-05-14T02:21:19.954Z,92607.00
2023-05-14T02:22:20.141Z,92607.00
2023-05-14T02:23:25.609Z,92607.00
2023-05-14T02:24:21.328Z,92605.00
2023-05-14T02:25:20.325Z,92609.00
2023-05-14T02:26:20.323Z,92605.00
2023-05-14T02:27:20.315Z,92605.00
2023-05-14T02:28:20.314Z,92603.00
2023-05-14T02:29:20.384Z,92603.00
2023-05-14T02:30:20.313Z,92605.00
2023-05-14T02:31:20.371Z,92603.00
2023-05-14T02:32:20.312Z,92603.00
2023-05-14T02:33:20.475Z,92599.00
2023-05-14T02:34:20.427Z,92601.00
2023-05-14T02:35:20.493Z,92597.00
2023-05-14T02:36:20.573Z,92599.00
2023-05-14T02:37:20.624Z,92599.00
2023-05-14T02:38:20.682Z,92599.00
2023-05-14T02:39:20.759Z,92595.00
2023-05-14T02:40:20.850Z,92595.00
2023-05-14T02:41:20.878Z,92595.00
2023-05-14T02:42:20.933Z,92595.00
2023-05-14T02:43:20.992Z,92593.00
2023-05-14T02:44:21.060Z,92591.00
2023-05-14T02:45:21.109Z,92593.00
2023-05-14T02:46:21.260Z,92591.00
2023-05-14T02:47:21.322Z,92591.00
2023-05-14T02:48:21.280Z,92590.00
2023-05-14T02:49:21.316Z,92588.00
2023-05-14T02:50:21.595Z,92586.00
2023-05-14T02:51:21.416Z,92584.00
2023-05-14T02:52:21.490Z,92584.00
2023-05-14T02:53:21.550Z,92576.00
2023-05-14T02:54:21.602Z,92574.00
2023-05-14T02:55:21.656Z,92572.00
2023-05-14T02:56:21.719Z,92570.00
2023-05-14T02:57:21.766Z,92568.00
2023-05-14T02:58:24.639Z,92570.00
2023-05-14T02:59:22.832Z,92566.00
2023-05-14T03:00:22.085Z,92566.00
2023-05-14T03:01:21.929Z,92564.00
2023-05-14T03:02:21.838Z,92566.00
2023-05-14T03:03:21.844Z,92564.00
2023-05-14T03:04:21.828Z,92562.00
2023-05-14T03:05:21.815Z,92560.00
2023-05-14T03:06:21.837Z,92562.00
2023-05-14T03:07:21.878Z,92562.00
2023-05-14T03:08:21.828Z,92564.00
2023-05-14T03:09:21.906Z,92562.00
2023-05-14T03:10:22.254Z,92560.00
2023-05-14T03:11:22.031Z,92560.00
2023-05-14T03:12:22.106Z,92562.00
2023-05-14T03:13:22.168Z,92558.00
2023-05-14T03:14:22.242Z,92558.00
2023-05-14T03:15:22.306Z,92560.00
2023-05-14T03:16:22.449Z,92558.00
2023-05-14T03:17:22.460Z,92558.00
2023-05-14T03:18:22.485Z,92560.00
2023-05-14T03:19:22.551Z,92558.00
2023-05-14T03:20:22.876Z,92558.00
2023-05-14T03:21:22.759Z,92560.00
2023-05-14T03:22:22.750Z,92562.00
2023-05-14T03:23:22.807Z,92562.00
2023-05-14T03:24:22.869Z,92562.00
2023-05-14T03:25:22.939Z,92560.00
2023-05-14T03:26:23.001Z,92556.00
2023-05-14T03:27:23.111Z,92558.00
2023-05-14T03:28:23.139Z,92556.00
2023-05-14T03:29:23.263Z,92558.00
2023-05-14T03:30:23.483Z,92556.00
2023-05-14T03:31:23.356Z,92556.00
2023-05-14T03:32:23.435Z,92556.00
2023-05-14T03:33:23.541Z,92556.00
2023-05-14T03:34:23.545Z,92552.00
2023-05-14T03:35:23.624Z,92554.00
2023-05-14T03:36:23.710Z,92556.00
2023-05-14T03:37:23.761Z,92554.00
2023-05-14T03:38:23.831Z,92550.00
2023-05-14T03:39:23.999Z,92554.00
2023-05-14T03:40:24.110Z,92556.00
2023-05-14T03:41:24.037Z,92556.00
2023-05-14T03:42:24.115Z,92558.00
2023-05-14T03:43:24.166Z,92558.00
2023-05-14T03:44:24.232Z,92554.00
2023-05-14T03:45:24.278Z,92556.00
2023-05-14T03:46:24.326Z,92554.00
2023-05-14T03:47:24.396Z,92558.00
2023-05-14T03:48:24.530Z,92554.00
2023-05-14T03:49:24.518Z,92554.00
2023-05-14T03:50:24.721Z,92556.00
2023-05-14T03:51:24.686Z,92556.00
2023-05-14T03:52:24.741Z,92554.00
2023-05-14T03:53:24.732Z,92556.00
2023-05-14T03:54:24.799Z,92556.00
2023-05-14T03:55:24.866Z,92554.00
2023-05-14T03:56:24.925Z,92554.00
2023-05-14T03:57:24.992Z,92554.00
2023-05-14T03:58:25.088Z,92552.00
2023-05-14T03:59:25.104Z,92550.00
2023-05-14T04:00:25.541Z,92548.00
2023-05-14T04:01:25.225Z,92552.00
2023-05-14T04:02:25.392Z,92552.00
2023-05-14T04:03:25.527Z,92552.00
2023-05-14T04:04:25.481Z,92552.00
2023-05-14T04:05:25.456Z,92552.00
2023-05-14T04:06:25.517Z,92552.00
2023-05-14T04:07:25.579Z,92552.00
2023-05-14T04:08:25.647Z,92552.00
2023-05-14T04:09:25.696Z,92550.00
2023-05-14T04:10:25.962Z,92552.00
2023-05-14T04:11:25.800Z,92550.00
2023-05-14T04:12:25.834Z,92550.00
2023-05-14T04:13:25.912Z,92552.00
2023-05-14T04:14:25.958Z,92552.00
2023-05-14T04:15:26.035Z,92552.00
2023-05-14T04:16:26.099Z,92550.00
2023-05-14T04:17:26.226Z,92550.00
2023-05-14T04:18:26.212Z,92552.00
2023-05-14T04:19:26.234Z,92552.00
2023-05-14T04:20:26.366Z,92552.00
2023-05-14T04:21:26.367Z,92550.00
2023-05-14T04:22:26.424Z,92552.00
2023-05-14T04:23:26.504Z,92554.00
2023-05-14T04:24:26.566Z,92556.00
2023-05-14T04:25:26.650Z,92554.00
2023-05-14T04:26:26.667Z,92554.00
2023-05-14T04:27:26.730Z,92554.00
2023-05-14T04:28:26.799Z,92552.00
2023-05-14T04:29:26.852Z,92554.00
2023-05-14T04:30:26.932Z,92552.00
2023-05-14T04:31:27.092Z,92550.00
2023-05-14T04:32:27.072Z,92550.00
2023-05-14T04:33:27.076Z,92546.00
2023-05-14T04:34:27.142Z,92545.00
2023-05-14T04:35:27.201Z,92543.00
2023-05-14T04:36:27.268Z,92545.00
2023-05-14T04:37:27.425Z,92543.00
2023-05-14T04:38:27.512Z,92543.00
2023-05-14T04:39:27.711Z,92543.00
2023-05-14T04:40:27.900Z,92541.00
2023-05-14T04:41:28.098Z,92543.00
2023-05-14T04:42:28.293Z,92541.00
2023-05-14T04:43:28.388Z,92543.00
2023-05-14T04:44:28.522Z,92539.00
2023-05-14T04:45:28.530Z,92541.00
2023-05-14T04:46:28.696Z,92537.00
2023-05-14T04:47:28.657Z,92541.00
2023-05-14T04:48:28.703Z,92539.00
2023-05-14T04:49:28.768Z,92539.00
2023-05-14T04:50:28.863Z,92537.00
2023-05-14T04:51:28.907Z,92539.00
2023-05-14T04:52:29.039Z,92539.00
2023-05-14T04:53:29.021Z,92539.00
2023-05-14T04:54:29.272Z,92537.00
2023-05-14T04:55:29.420Z,92541.00
2023-05-14T04:56:29.659Z,92539.00
2023-05-14T04:57:29.785Z,92541.00
2023-05-14T04:58:30.788Z,92541.00
2023-05-14T04:59:30.026Z,92541.00
2023-05-14T05:00:30.188Z,92539.00
2023-05-14T05:01:30.188Z,92543.00
2023-05-14T05:02:30.235Z,92543.00
2023-05-14T05:03:30.423Z,92548.00
2023-05-14T05:04:30.352Z,92546.00
2023-05-14T05:05:30.431Z,92550.00
2023-05-14T05:06:30.501Z,92550.00
2023-05-14T05:07:30.580Z,92550.00
2023-05-14T05:08:30.650Z,92550.00
2023-05-14T05:09:30.831Z,92548.00
2023-05-14T05:10:30.922Z,92546.00
2023-05-14T05:11:31.138Z,92550.00
2023-05-14T05:12:31.329Z,92550.00
2023-05-14T05:13:31.458Z,92546.00
2023-05-14T05:14:31.659Z,92548.00
2023-05-14T05:15:31.868Z,92548.00
2023-05-14T05:16:32.096Z,92546.00
2023-05-14T05:17:32.189Z,92548.00
2023-05-14T05:18:32.407Z,92548.00
2023-05-14T05:19:42.536Z,92548.00
2023-05-14T05:20:33.666Z,92550.00
2023-05-14T05:21:32.530Z,92550.00
2023-05-14T05:22:32.554Z,92550.00
2023-05-14T05:23:32.557Z,92550.00
2023-05-14T05:24:32.513Z,92550.00
2023-05-14T05:25:32.522Z,92550.00
2023-05-14T05:26:32.716Z,92548.00
2023-05-14T05:27:32.526Z,92548.00
2023-05-14T05:28:32.529Z,92548.00
2023-05-14T05:29:32.701Z,92548.00
2023-05-14T05:30:32.531Z,92550.00
2023-05-14T05:31:32.636Z,92546.00
2023-05-14T05:32:32.543Z,92546.00
2023-05-14T05:33:32.550Z,92548.00
2023-05-14T05:34:32.648Z,92545.00
2023-05-14T05:35:32.634Z,92543.00
2023-05-14T05:36:32.772Z,92545.00
2023-05-14T05:37:32.702Z,92543.00
2023-05-14T05:38:32.922Z,92546.00
2023-05-14T05:39:32.804Z,92545.00
2023-05-14T05:40:32.850Z,92543.00
2023-05-14T05:41:32.932Z,92543.00
2023-05-14T05:42:33.011Z,92545.00
2023-05-14T05:43:33.123Z,92543.00
2023-05-14T05:44:33.085Z,92543.00
2023-05-14T05:45:33.111Z,92539.00
2023-05-14T05:46:33.378Z,92543.00
2023-05-14T05:47:33.222Z,92541.00
2023-05-14T05:48:33.239Z,92543.00
2023-05-14T05:49:33.259Z,92537.00
2023-05-14T05:50:33.300Z,92539.00
2023-05-14T05:51:33.567Z,92541.00
2023-05-14T05:52:33.389Z,92539.00
2023-05-14T05:53:33.419Z,92541.00
2023-05-14T05:54:33.506Z,92543.00
2023-05-14T05:55:33.568Z,92545.00
2023-05-14T05:56:33.735Z,92545.00
2023-05-14T05:57:34.098Z,92546.00
2023-05-14T05:58:34.090Z,92545.00
2023-05-14T05:59:34.281Z,92546.00
2023-05-14T06:00:34.456Z,92546.00
2023-05-14T06:01:34.633Z,92546.00
2023-05-14T06:02:35.020Z,92545.00
2023-05-14T06:03:34.996Z,92543.00
2023-05-14T06:04:35.167Z,92546.00
2023-05-14T06:05:35.478Z,92548.00
2023-05-14T06:06:35.621Z,92546.00
2023-05-14T06:07:35.804Z,92552.00
2023-05-14T06:08:35.921Z,92548.00
2023-05-14T06:09:36.477Z,92550.00
2023-05-14T06:10:36.124Z,92548.00
2023-05-14T06:11:36.754Z,92550.00
2023-05-14T06:12:36.437Z,92552.00
2023-05-14T06:13:36.240Z,92552.00
2023-05-14T06:14:36.299Z,92550.00
2023-05-14T06:15:36.346Z,92548.00
2023-05-14T06:16:36.456Z,92548.00
2023-05-14T06:17:36.511Z,92548.00
2023-05-14T06:18:36.648Z,92548.00
2023-05-14T06:19:36.762Z,92548.00
2023-05-14T06:20:36.885Z,92548.00
2023-05-14T06:21:37.013Z,92550.00
2023-05-14T06:22:37.240Z,92546.00
2023-05-14T06:23:37.346Z,92548.00
2023-05-14T06:24:37.517Z,92545.00
2023-05-14T06:25:37.690Z,92548.00
2023-05-14T06:26:37.833Z,92546.00
2023-05-14T06:27:38.173Z,92546.00
2023-05-14T06:28:38.179Z,92545.00
2023-05-14T06:29:38.358Z,92548.00
2023-05-14T06:30:38.532Z,92546.00
2023-05-14T06:31:38.733Z,92545.00
2023-05-14T06:32:38.918Z,92545.00
2023-05-14T06:33:39.283Z,92546.00
2023-05-14T06:34:39.438Z,92548.00
2023-05-14T06:35:39.365Z,92546.00
2023-05-14T06:36:39.519Z,92546.00
2023-05-14T06:37:39.696Z,92546.00
2023-05-14T06:38:39.809Z,92546.00
2023-05-14T06:39:40.093Z,92548.00
2023-05-14T06:40:40.344Z,92546.00
2023-05-14T06:41:40.262Z,92545.00
2023-05-14T06:42:40.405Z,92546.00
2023-05-14T06:43:40.546Z,92543.00
2023-05-14T06:44:40.693Z,92543.00
2023-05-14T06:45:40.845Z,92545.00
2023-05-14T06:46:41.076Z,92545.00
2023-05-14T06:47:41.213Z,92545.00
2023-05-14T06:48:41.490Z,92545.00
2023-05-14T06:49:41.421Z,92543.00
2023-05-14T06:50:41.561Z,92545.00
2023-05-14T06:51:41.714Z,92543.00
2023-05-14T06:52:41.866Z,92543.00
2023-05-14T06:53:42.029Z,92541.00
2023-05-14T06:54:42.256Z,92539.00
2023-05-14T06:55:42.426Z,92541.00
2023-05-14T06:56:42.498Z,92539.00
2023-05-14T06:57:42.630Z,92537.00
2023-05-14T06:58:42.799Z,92537.00
2023-05-14T06:59:42.949Z,92535.00
2023-05-14T07:00:43.107Z,92533.00
2023-05-14T07:01:43.530Z,92535.00
2023-05-14T07:02:43.453Z,92531.00
2023-05-14T07:03:43.590Z,92531.00
2023-05-14T07:04:43.806Z,92529.00
2023-05-14T07:05:43.911Z,92525.00
2023-05-14T07:06:44.073Z,92527.00
2023-05-14T07:07:44.276Z,92525.00
2023-05-14T07:08:44.530Z,92525.00
2023-05-14T07:09:44.531Z,92523.00
2023-05-14T07:10:44.682Z,92523.00
2023-05-14T07:11:44.837Z,92523.00
2023-05-14T07:12:45.038Z,92519.00
2023-05-14T07:13:45.141Z,92519.00
2023-05-14T07:14:45.288Z,92519.00
2023-05-14T07:15:45.598Z,92517.00
2023-05-14T07:16:45.646Z,92519.00
2023-05-14T07:17:45.785Z,92517.00
2023-05-14T07:18:45.977Z,92517.00
2023-05-14T07:19:46.104Z,92519.00
2023-05-14T07:20:46.255Z,92517.00
2023-05-14T07:21:46.553Z,92517.00
2023-05-14T07:22:46.641Z,92519.00
2023-05-14T07:23:46.736Z,92517.00
2023-05-14T07:24:46.902Z,92515.00
2023-05-14T07:25:46.984Z,92513.00
2023-05-14T07:26:47.161Z,92507.00
2023-05-14T07:27:47.306Z,92507.00
2023-05-14T07:28:47.455Z,92505.00
2023-05-14T07:29:47.621Z,92501.00
2023-05-14T07:30:47.794Z,92501.00
2023-05-14T07:31:48.049Z,92501.00
2023-05-14T07:32:48.151Z,92501.00
2023-05-14T07:33:48.379Z,92499.00
2023-05-14T07:34:48.364Z,92498.00
2023-05-14T07:35:48.506Z,92498.00
2023-05-14T07:36:48.648Z,92494.00
2023-05-14T07:37:48.776Z,92498.00
2023-05-14T07:38:48.929Z,92494.00
2023-05-14T07:39:49.124Z,92490.00
2023-05-14T07:40:49.201Z,92488.00
2023-05-14T07:41:49.359Z,92486.00
2023-05-14T07:42:49.465Z,92484.00
2023-05-14T07:43:49.686Z,92484.00
2023-05-14T07:44:49.801Z,92484.00
2023-05-14T07:45:50.027Z,92482.00
2023-05-14T07:46:50.172Z,92478.00
2023-05-14T07:47:50.273Z,92476.00
2023-05-14T07:48:50.343Z,92476.00
2023-05-14T07:49:50.557Z,92476.00
2023-05-14T07:50:50.710Z,92474.00
2023-05-14T07:51:50.748Z,92474.00
2023-05-14T07:52:50.848Z,92472.00
2023-05-14T07:53:51.053Z,92472.00
2023-05-14T07:54:51.110Z,92470.00
2023-05-14T07:55:51.263Z,92468.00
2023-05-14T07:56:51.404Z,92470.00
2023-05-14T07:57:51.567Z,92466.00
2023-05-14T07:58:51.844Z,92466.00
2023-05-14T07:59:51.838Z,92466.00
2023-05-14T08:00:51.982Z,92466.00
2023-05-14T08:01:52.149Z,92466.00
2023-05-14T08:02:52.666Z,92460.00
2023-05-14T08:03:52.507Z,92460.00
2023-05-14T08:04:52.413Z,92456.00
2023-05-14T08:05:52.485Z,92458.00
2023-05-14T08:06:52.586Z,92452.00
2023-05-14T08:07:52.399Z,92452.00
2023-05-14T08:08:52.448Z,92447.00
2023-05-14T08:09:52.549Z,92447.00
2023-05-14T08:10:52.849Z,92445.00
2023-05-14T08:11:52.565Z,92445.00
2023-05-14T08:12:52.503Z,92443.00
2023-05-14T08:13:52.497Z,92439.00
2023-05-14T08:14:52.480Z,92441.00
2023-05-14T08:15:52.457Z,92437.00
2023-05-14T08:16:52.538Z,92433.00
2023-05-14T08:17:52.515Z,92433.00
2023-05-14T08:18:52.463Z,92433.00
2023-05-14T08:19:52.560Z,92429.00
2023-05-14T08:20:52.540Z,92431.00
2023-05-14T08:21:52.807Z,92425.00
2023-05-14T08:22:52.509Z,92427.00
2023-05-14T08:23:52.550Z,92425.00
2023-05-14T08:24:52.504Z,92425.00
2023-05-14T08:25:52.477Z,92425.00
2023-05-14T08:26:52.629Z,92419.00
2023-05-14T08:27:52.616Z,92419.00
2023-05-14T08:28:52.544Z,92417.00
2023-05-14T08:29:52.558Z,92421.00
2023-05-14T08:30:52.575Z,92413.00
2023-05-14T08:31:52.592Z,92413.00
2023-05-14T08:32:52.728Z,92411.00
2023-05-14T08:33:52.564Z,92409.00
2023-05-14T08:34:52.732Z,92407.00
2023-05-14T08:35:52.663Z,92407.00
2023-05-14T08:36:52.662Z,92409.00
2023-05-14T08:37:52.725Z,92409.00
2023-05-14T08:38:52.778Z,92407.00
2023-05-14T08:39:52.756Z,92405.00
2023-05-14T08:40:52.800Z,92407.00
2023-05-14T08:41:52.868Z,92403.00
2023-05-14T08:42:52.894Z,92401.00
2023-05-14T08:43:53.386Z,92399.00
2023-05-14T08:44:52.939Z,92399.00
2023-05-14T08:45:52.944Z,92399.00
2023-05-14T08:46:52.959Z,92399.00
2023-05-14T08:47:53.085Z,92396.00
2023-05-14T08:48:53.051Z,92396.00
2023-05-14T08:49:53.056Z,92394.00
2023-05-14T08:50:53.047Z,92394.00
2023-05-14T08:51:53.008Z,92394.00
2023-05-14T08:52:53.050Z,92394.00
2023-05-14T08:53:52.978Z,92390.00
2023-05-14T08:54:52.964Z,92392.00
2023-05-14T08:55:53.000Z,92390.00
2023-05-14T08:56:52.910Z,92390.00
2023-05-14T08:57:52.953Z,92390.00
2023-05-14T08:58:52.850Z,92394.00
2023-05-14T08:59:52.886Z,92390.00
2023-05-14T09:00:52.787Z,92390.00
2023-05-14T09:01:52.783Z,92390.00
2023-05-14T09:02:52.855Z,92388.00
2023-05-14T09:03:52.895Z,92388.00
2023-05-14T09:04:52.677Z,92384.00
2023-05-14T09:05:52.635Z,92384.00
2023-05-14T09:06:52.588Z,92382.00
2023-05-14T09:07:52.595Z,92382.00
2023-05-14T09:08:52.510Z,92388.00
2023-05-14T09:09:52.558Z,92388.00
2023-05-14T09:10:52.467Z,92390.00
2023-05-14T09:11:52.444Z,92386.00
2023-05-14T09:12:52.387Z,92386.00
2023-05-14T09:13:52.327Z,92388.00
2023-05-14T09:14:52.279Z,92386.00
2023-05-14T09:15:52.295Z,92386.00
2023-05-14T09:16:52.460Z,92382.00
2023-05-14T09:17:52.278Z,92386.00
2023-05-14T09:18:52.239Z,92386.00
2023-05-14T09:19:52.133Z,92386.00
2023-05-14T09:20:52.078Z,92382.00
2023-05-14T09:21:51.987Z,92380.00
2023-05-14T09:22:51.962Z,92380.00
2023-05-14T09:23:51.881Z,92378.00
2023-05-14T09:24:51.893Z,92378.00
2023-05-14T09:25:51.812Z,92380.00
2023-05-14T09:26:51.755Z,92376.00
2023-05-14T09:27:51.811Z,92376.00
2023-05-14T09:28:51.749Z,92376.00
2023-05-14T09:29:51.651Z,92378.00
2023-05-14T09:30:51.662Z,92376.00
2023-05-14T09:31:51.764Z,92370.00
2023-05-14T09:32:51.540Z,92374.00
2023-05-14T09:33:51.640Z,92374.00
2023-05-14T09:34:51.438Z,92370.00
2023-05-14T09:35:51.397Z,92370.00
2023-05-14T09:36:51.328Z,92368.00
2023-05-14T09:37:51.350Z,92370.00
2023-05-14T09:38:51.329Z,92368.00
2023-05-14T09:39:51.364Z,92368.00
2023-05-14T09:40:51.299Z,92368.00
2023-05-14T09:41:51.268Z,92368.00
2023-05-14T09:42:51.233Z,92368.00
2023-05-14T09:43:51.220Z,92366.00
2023-05-14T09:44:51.307Z,92368.00
2023-05-14T09:45:51.244Z,92362.00
2023-05-14T09:46:51.246Z,92360.00
2023-05-14T09:47:51.254Z,92358.00
2023-05-14T09:48:51.217Z,92358.00
2023-05-14T09:49:51.129Z,92360.00
2023-05-14T09:50:51.124Z,92356.00
2023-05-14T09:51:51.121Z,92356.00
2023-05-14T09:52:51.006Z,92356.00
2023-05-14T09:53:51.065Z,92354.00
2023-05-14T09:54:50.940Z,92352.00
2023-05-14T09:55:50.986Z,92352.00
2023-05-14T09:56:50.933Z,92350.00
2023-05-14T09:57:51.064Z,92352.00
2023-05-14T09:58:50.956Z,92350.00
2023-05-14T09:59:50.919Z,92350.00
2023-05-14T10:00:50.960Z,92350.00
2023-05-14T10:01:50.902Z,92349.00
2023-05-14T10:02:50.925Z,92349.00
2023-05-14T10:03:50.943Z,92349.00
2023-05-14T10:04:50.968Z,92349.00
2023-05-14T10:05:50.866Z,92349.00
2023-05-14T10:06:50.834Z,92349.00
2023-05-14T10:07:50.858Z,92345.00
2023-05-14T10:08:50.882Z,92345.00
2023-05-14T10:09:50.942Z,92345.00
2023-05-14T10:10:50.828Z,92343.00
2023-05-14T10:11:50.847Z,92341.00
2023-05-14T10:12:50.840Z,92337.00
2023-05-14T10:13:50.825Z,92337.00
2023-05-14T10:14:50.827Z,92337.00
2023-05-14T10:15:50.805Z,92341.00
2023-05-14T10:16:50.867Z,92339.00
2023-05-14T10:17:50.822Z,92339.00
2023-05-14T10:18:50.828Z,92337.00
2023-05-14T10:19:50.795Z,92337.00
2023-05-14T10:20:50.807Z,92337.00
2023-05-14T10:21:50.747Z,92337.00
2023-05-14T10:22:50.924Z,92333.00
2023-05-14T10:23:50.837Z,92333.00
2023-05-14T10:24:50.961Z,92329.00
2023-05-14T10:25:51.066Z,92327.00
2023-05-14T10:26:51.179Z,92319.00
2023-05-14T10:27:51.309Z,92329.00
2023-05-14T10:28:51.416Z,92319.00
2023-05-14T10:29:51.529Z,92317.00
2023-05-14T10:30:51.657Z,92313.00
2023-05-14T10:31:51.754Z,92317.00
2023-05-14T10:32:51.901Z,92313.00
2023-05-14T10:33:52.018Z,92308.00
2023-05-14T10:34:52.266Z,92308.00
2023-05-14T10:35:52.258Z,92304.00
2023-05-14T10:36:52.395Z,92300.00
2023-05-14T10:37:52.514Z,92296.00
2023-05-14T10:38:52.676Z,92294.00
2023-05-14T10:39:52.729Z,92294.00
2023-05-14T10:40:54.170Z,92290.00
2023-05-14T10:41:52.839Z,92288.00
2023-05-14T10:42:52.783Z,92284.00
2023-05-14T10:43:52.727Z,92280.00
2023-05-14T10:44:52.696Z,92276.00
2023-05-14T10:45:52.736Z,92278.00
2023-05-14T10:46:52.807Z,92272.00
2023-05-14T10:47:52.819Z,92270.00
2023-05-14T10:48:52.674Z,92263.00
2023-05-14T10:49:52.680Z,92263.00
2023-05-14T10:50:52.725Z,92265.00
2023-05-14T10:51:52.646Z,92265.00
2023-05-14T10:52:52.704Z,92261.00
2023-05-14T10:53:52.741Z,92261.00
2023-05-14T10:54:52.757Z,92255.00
2023-05-14T10:55:52.631Z,92251.00
2023-05-14T10:56:52.614Z,92251.00
2023-05-14T10:57:52.547Z,92247.00
2023-05-14T10:58:52.570Z,92247.00
2023-05-14T10:59:52.513Z,92245.00
2023-05-14T11:00:52.523Z,92241.00
2023-05-14T11:01:52.473Z,92241.00
2023-05-14T11:02:52.465Z,92241.00
2023-05-14T11:03:52.493Z,92237.00
2023-05-14T11:04:52.414Z,92235.00
2023-05-14T11:05:52.385Z,92233.00
2023-05-14T11:06:52.397Z,92237.00
2023-05-14T11:07:52.387Z,92233.00
2023-05-14T11:08:52.387Z,92231.00
2023-05-14T11:09:52.399Z,92231.00
2023-05-14T11:10:52.429Z,92227.00
2023-05-14T11:11:52.423Z,92225.00
2023-05-14T11:12:52.411Z,92225.00
2023-05-14T11:13:52.409Z,92223.00
2023-05-14T11:14:52.824Z,92223.00
2023-05-14T11:15:52.415Z,92219.00
2023-05-14T11:16:52.400Z,92218.00
2023-05-14T11:17:52.356Z,92219.00
2023-05-14T11:18:52.285Z,92216.00
2023-05-14T11:19:52.334Z,92218.00
2023-05-14T11:20:52.600Z,92212.00
2023-05-14T11:21:52.622Z,92210.00
2023-05-14T11:22:52.715Z,92206.00
2023-05-14T11:23:52.777Z,92206.00
2023-05-14T11:24:52.848Z,92204.00
2023-05-14T11:25:53.028Z,92208.00
2023-05-14T11:26:53.096Z,92204.00
2023-05-14T11:27:53.243Z,92200.00
2023-05-14T11:28:53.302Z,92198.00
2023-05-14T11:29:53.503Z,92196.00
2023-05-14T11:30:53.728Z,92196.00
2023-05-14T11:31:53.878Z,92196.00
2023-05-14T11:32:53.895Z,92196.00
2023-05-14T11:33:54.026Z,92192.00
2023-05-14T11:34:54.186Z,92190.00
2023-05-14T11:35:54.191Z,92190.00
2023-05-14T11:36:54.353Z,92190.00
2023-05-14T11:37:54.481Z,92190.00
2023-05-14T11:38:54.610Z,92188.00
2023-05-14T11:39:54.719Z,92188.00
2023-05-14T11:40:54.781Z,92186.00
2023-05-14T11:41:54.895Z,92186.00
2023-05-14T11:42:55.109Z,92182.00
2023-05-14T11:43:55.089Z,92184.00
2023-05-14T11:44:55.260Z,92186.00
2023-05-14T11:45:55.515Z,92186.00